createdAt,value
2022-09-30T03:33:37.695Z,7.10
2022-09-30T03:36:11.076Z,8.50
2022-09-30T03:38:56.210Z,7.90
2022-09-30T03:41:34.966Z,7.80
2022-09-30T05:49:02.450Z,10.80
2022-09-30T05:51:33.050Z,12.60
2022-09-30T05:54:00.478Z,11.45
2022-09-30T05:56:37.515Z,11.07
2022-09-30T05:59:22.687Z,11.15
2022-09-30T06:01:56.282Z,12.88
2022-09-30T06:04:23.796Z,14.70
2022-09-30T06:06:50.979Z,12.98
2022-09-30T06:09:18.368Z,12.98
2022-09-30T06:11:45.746Z,13.02
2022-09-30T06:14:13.329Z,12.57
2022-09-30T08:46:14.972Z,8.18
2022-09-30T08:48:48.512Z,8.18
2022-09-30T08:51:37.429Z,7.78
2022-09-30T08:54:10.347Z,7.05
2022-09-30T12:12:19.291Z,9.75
2022-09-30T12:14:52.313Z,10.85
2022-09-30T12:17:37.584Z,8.85
2022-09-30T12:20:38.424Z,7.68
2022-09-30T12:23:21.025Z,8.02
2022-09-30T12:25:52.648Z,7.30
2022-09-30T12:28:46.566Z,6.15
2022-09-30T12:31:32.531Z,6.97
2022-09-30T12:33:59.665Z,7.13
2022-09-30T12:36:43.355Z,8.25
2022-09-30T12:39:26.000Z,7.40
2022-09-30T12:41:56.225Z,7.13
2022-09-30T12:44:42.075Z,6.20
2022-09-30T12:47:23.114Z,5.90
2022-09-30T12:49:51.263Z,6.35
2022-09-30T12:52:26.408Z,6.20
2022-09-30T12:54:58.667Z,5.70
2022-09-30T12:57:28.890Z,5.78
2022-09-30T12:59:57.577Z,6.45
2022-09-30T13:02:45.100Z,5.30
2022-09-30T13:05:27.623Z,5.72
2022-09-30T13:08:06.790Z,5.93
2022-09-30T13:10:35.478Z,5.22
2022-09-30T13:13:19.235Z,4.40
2022-09-30T13:15:47.479Z,4.25
2022-09-30T13:18:29.381Z,3.50
2022-09-30T13:21:05.605Z,3.87
2022-09-30T13:23:38.834Z,4.05
2022-09-30T13:26:44.793Z,3.88
2022-09-30T13:29:15.797Z,5.07
2022-09-30T13:32:01.861Z,3.70
2022-09-30T13:34:58.624Z,4.20
2022-09-30T13:37:34.076Z,4.55
2022-09-30T13:40:01.486Z,3.75
2022-09-30T13:42:32.727Z,3.80
2022-09-30T13:45:08.724Z,4.28
2022-09-30T13:47:41.109Z,3.80
2022-09-30T13:50:17.196Z,3.55
2022-09-30T13:52:46.147Z,3.85
2022-09-30T13:55:28.962Z,4.60
2022-09-30T14:03:34.272Z,4.18
2022-09-30T14:06:17.250Z,4.10
2022-09-30T14:08:49.887Z,4.80
2022-09-30T14:14:14.106Z,4.07
2022-09-30T14:16:55.898Z,4.72
2022-09-30T14:22:25.108Z,3.53
2022-09-30T14:24:59.812Z,3.80
2022-09-30T14:27:35.074Z,3.15
2022-09-30T14:30:04.753Z,4.45
2022-09-30T14:32:55.707Z,4.25
2022-09-30T14:35:33.490Z,3.38
2022-09-30T14:39:00.899Z,3.85
2022-09-30T14:55:38.033Z,2.97
2022-09-30T14:58:28.574Z,3.20
2022-09-30T15:00:59.160Z,3.60
2022-09-30T15:03:27.574Z,3.40
2022-09-30T15:08:43.457Z,3.10
2022-09-30T15:11:29.295Z,2.60
2022-09-30T15:14:32.193Z,3.05
2022-09-30T15:17:17.415Z,3.50
2022-09-30T15:19:44.895Z,2.67
2022-09-30T17:34:35.826Z,9.83
2022-09-30T18:15:14.331Z,5.13
2022-09-30T18:18:08.491Z,5.40
2022-09-30T18:20:38.028Z,5.30
2022-09-30T18:26:11.010Z,6.88
2022-09-30T18:28:48.149Z,6.57
2022-09-30T18:31:21.303Z,6.22
2022-09-30T18:34:12.968Z,5.93
2022-09-30T18:39:38.220Z,6.80
2022-09-30T18:42:12.271Z,7.28
2022-09-30T18:47:33.337Z,8.82
2022-09-30T18:50:07.287Z,9.75
2022-09-30T18:52:34.598Z,8.68
2022-09-30T18:55:02.092Z,9.30
2022-09-30T18:57:31.594Z,8.35
2022-09-30T19:00:09.519Z,9.73
2022-09-30T19:03:06.526Z,9.40
2022-09-30T19:05:48.217Z,8.57
2022-09-30T19:11:22.257Z,6.45
2022-09-30T19:16:44.145Z,6.60
2022-09-30T19:19:17.146Z,6.80
2022-09-30T20:13:08.195Z,8.20
2022-09-30T20:15:52.965Z,8.32
2022-09-30T20:18:23.561Z,8.48
2022-09-30T20:20:53.430Z,8.48
2022-09-30T20:23:26.932Z,8.93
2022-09-30T20:26:09.411Z,9.93
2022-09-30T20:28:46.168Z,9.98
2022-09-30T20:31:21.327Z,9.77
2022-09-30T20:33:53.373Z,9.65
2022-09-30T20:36:36.014Z,10.13
2022-09-30T20:39:03.769Z,9.45
2022-09-30T20:41:37.580Z,10.25
2022-09-30T20:47:21.922Z,10.77
2022-09-30T20:50:06.102Z,10.45
2022-09-30T20:52:47.706Z,9.90
2022-09-30T20:58:17.202Z,9.38
2022-09-30T21:00:54.179Z,9.82
2022-09-30T21:03:51.789Z,10.30
2022-09-30T21:06:24.946Z,9.43
2022-09-30T21:08:52.618Z,10.85
2022-09-30T21:11:20.082Z,11.15
2022-09-30T21:13:48.320Z,9.95
2022-09-30T21:16:16.639Z,9.20
2022-09-30T21:18:44.362Z,11.18
2022-09-30T21:21:16.289Z,9.65
2022-09-30T21:23:43.510Z,10.82
2022-09-30T21:26:11.867Z,10.10
2022-09-30T21:28:39.090Z,11.05
2022-09-30T21:31:12.828Z,10.38
2022-09-30T21:33:40.288Z,11.18
2022-09-30T21:36:07.560Z,10.45
2022-09-30T21:38:34.702Z,12.30
2022-09-30T21:41:02.967Z,10.63
2022-09-30T21:43:34.138Z,10.93
2022-09-30T21:46:02.168Z,11.18
2022-09-30T21:48:30.489Z,10.43
2022-09-30T21:50:57.628Z,10.20
2022-09-30T21:53:28.014Z,10.40
2022-09-30T21:55:55.759Z,10.40
2022-09-30T21:58:26.456Z,9.50
2022-09-30T22:00:54.734Z,11.32
2022-09-30T22:03:23.456Z,9.77
2022-09-30T22:05:54.011Z,11.30
2022-09-30T22:08:21.612Z,9.40
2022-09-30T22:10:50.841Z,9.90
2022-09-30T22:13:18.300Z,11.27
2022-09-30T22:15:46.184Z,10.57
2022-09-30T22:18:17.387Z,11.93
2022-09-30T22:20:48.452Z,10.70
2022-09-30T22:23:15.719Z,11.50
2022-09-30T22:25:42.898Z,14.25
2022-09-30T22:28:10.498Z,13.15
2022-09-30T22:30:37.846Z,13.75
2022-09-30T22:33:23.894Z,13.75
2022-09-30T22:36:09.964Z,14.30
2022-09-30T22:38:37.120Z,14.35
2022-09-30T22:41:04.232Z,13.50
2022-09-30T22:43:32.954Z,12.45
2022-09-30T22:46:03.229Z,12.27
2022-09-30T22:48:31.341Z,13.38
2022-09-30T22:50:58.915Z,12.18
2022-09-30T22:53:26.359Z,11.25
2022-09-30T22:55:53.674Z,10.95
2022-09-30T22:58:21.220Z,10.55
2022-09-30T23:00:58.641Z,10.82
2022-09-30T23:03:26.516Z,11.48
2022-09-30T23:05:54.223Z,11.18
2022-09-30T23:08:22.149Z,10.45
2022-09-30T23:10:52.197Z,11.55
2022-09-30T23:13:22.206Z,12.50
2022-09-30T23:15:49.437Z,13.00
2022-09-30T23:18:19.835Z,13.75
2022-09-30T23:21:00.434Z,14.07
2022-09-30T23:23:29.775Z,12.90
2022-09-30T23:25:59.946Z,15.50
2022-09-30T23:28:27.647Z,14.65
2022-09-30T23:30:54.934Z,16.70
2022-09-30T23:33:22.093Z,16.48
2022-09-30T23:35:49.863Z,15.18
2022-09-30T23:38:17.923Z,16.17
2022-09-30T23:40:49.212Z,16.08
2022-09-30T23:43:16.593Z,18.60
2022-09-30T23:45:43.981Z,17.23
2022-09-30T23:48:11.109Z,19.33
2022-09-30T23:50:39.140Z,20.65
2022-09-30T23:53:06.290Z,17.13
2022-09-30T23:55:33.473Z,17.23
2022-09-30T23:58:00.601Z,18.60
